Time;durP1;ratioP1;P1;durP2;ratioP2;P2;SDS_P1;SDS_P2;PMS_P1;PMS_P2;Temp;Humidity;BMP_temperature;BMP_pressure;BME280_temperature;BME280_humidity;BME280_pressure;Samples;Min_cycle;Max_cycle;Signal;HPM_P1;HPM_P2
2023/03/17 00:00:43;;;;;;;7.73;4.40;;;8.90;1.00;;;;;;5040942;28;20187;-70
2023/03/17 00:03:28;;;;;;;6.00;4.37;;;8.90;1.00;;;;;;5043220;28;20425;-70
2023/03/17 00:05:55;;;;;;;7.37;4.70;;;8.80;1.00;;;;;;5029259;28;20471;-71
2023/03/17 00:08:27;;;;;;;4.67;4.07;;;8.90;1.00;;;;;;5033555;28;21005;-71
2023/03/17 00:10:53;;;;;;;7.83;4.73;;;8.90;1.00;;;;;;5033051;28;20842;-70
2023/03/17 00:13:19;;;;;;;5.63;4.30;;;8.90;1.00;;;;;;5036026;28;20861;-70
2023/03/17 00:15:49;;;;;;;6.03;4.57;;;8.90;1.00;;;;;;5040510;28;20471;-70
2023/03/17 00:18:17;;;;;;;4.50;3.90;;;8.90;1.00;;;;;;5047538;28;20563;-67
2023/03/17 00:20:45;;;;;;;5.30;3.90;;;8.90;1.00;;;;;;5033180;28;20876;-70
2023/03/17 00:23:15;;;;;;;5.33;4.50;;;9.00;1.00;;;;;;5030409;28;20826;-70
2023/03/17 00:25:42;;;;;;;11.47;4.60;;;9.00;1.00;;;;;;5043289;28;20547;-71
2023/03/17 00:28:20;;;;;;;5.67;4.00;;;9.00;1.00;;;;;;5029053;28;20831;-70
2023/03/17 00:30:47;;;;;;;5.30;4.00;;;9.10;1.00;;;;;;5029761;28;20436;-71
2023/03/17 00:33:18;;;;;;;6.07;4.30;;;9.00;1.00;;;;;;5030128;28;20429;-70
2023/03/17 00:35:45;;;;;;;5.93;4.10;;;9.00;1.00;;;;;;5033552;28;20447;-71
2023/03/17 00:38:15;;;;;;;5.93;4.20;;;9.10;1.00;;;;;;5028892;28;20543;-70
2023/03/17 00:40:41;;;;;;;6.57;4.00;;;11.60;1.00;;;;;;5031266;28;20423;-70
2023/03/17 00:43:07;;;;;;;6.20;4.00;;;9.10;1.00;;;;;;5032935;28;20480;-70
2023/03/17 00:45:33;;;;;;;6.53;3.80;;;9.20;1.00;;;;;;5039107;28;20543;-70
2023/03/17 00:47:59;;;;;;;8.10;4.10;;;9.20;1.00;;;;;;5048329;28;20254;-68
2023/03/17 00:50:26;;;;;;;6.30;4.00;;;9.20;1.00;;;;;;5035995;28;20184;-70
2023/03/17 00:52:55;;;;;;;7.23;4.50;;;9.30;1.00;;;;;;5032543;28;20519;-70
2023/03/17 00:55:22;;;;;;;5.33;3.63;;;9.30;1.00;;;;;;5036943;28;20951;-70
2023/03/17 00:57:48;;;;;;;4.40;3.70;;;9.20;1.00;;;;;;5029799;28;20447;-70
2023/03/17 01:00:23;;;;;;;5.07;3.80;;;9.30;1.00;;;;;;5029324;28;20897;-70
2023/03/17 01:02:49;;;;;;;6.33;4.30;;;9.30;1.00;;;;;;5028944;28;20432;-71
2023/03/17 01:05:15;;;;;;;9.43;4.70;;;9.30;1.00;;;;;;5033186;28;20555;-71
2023/03/17 01:07:46;;;;;;;6.33;4.30;;;9.30;1.00;;;;;;5031699;28;20551;-70
2023/03/17 01:10:15;;;;;;;6.50;3.77;;;9.40;1.00;;;;;;5031163;28;20184;-70
2023/03/17 01:12:41;;;;;;;5.73;4.00;;;9.40;1.00;;;;;;5041714;28;20439;-70
2023/03/17 01:15:07;;;;;;;10.57;4.17;;;9.40;1.00;;;;;;5042125;28;20458;-71
2023/03/17 01:17:33;;;;;;;5.97;4.20;;;9.40;1.00;;;;;;5032801;28;20499;-70
2023/03/17 01:19:58;;;;;;;5.13;3.90;;;9.40;1.00;;;;;;5032251;28;20177;-71
2023/03/17 01:22:24;;;;;;;7.23;3.97;;;9.40;1.00;;;;;;5029813;28;20189;-72
2023/03/17 01:24:50;;;;;;;4.83;3.50;;;9.40;1.00;;;;;;5046385;28;20201;-71
2023/03/17 01:27:18;;;;;;;4.80;4.13;;;9.40;1.00;;;;;;5049736;28;20210;-71
2023/03/17 01:29:43;;;;;;;6.20;4.30;;;9.40;1.00;;;;;;5040732;28;20174;-71
2023/03/17 01:32:09;;;;;;;5.43;4.00;;;9.40;1.00;;;;;;5039828;28;20434;-71
2023/03/17 01:34:35;;;;;;;4.70;3.70;;;9.40;1.00;;;;;;5039556;28;20648;-71
2023/03/17 01:37:01;;;;;;;4.50;3.73;;;9.40;1.00;;;;;;5044342;28;20543;-68
2023/03/17 01:39:27;;;;;;;6.40;3.97;;;10.40;1.00;;;;;;5034144;28;20228;-70
2023/03/17 01:41:55;;;;;;;5.03;4.13;;;9.40;1.00;;;;;;5044269;28;20719;-72
2023/03/17 01:44:22;;;;;;;6.70;4.27;;;9.40;1.00;;;;;;5031021;28;20818;-71
2023/03/17 01:46:48;;;;;;;5.70;4.17;;;9.40;1.00;;;;;;5033913;28;20551;-72
2023/03/17 01:49:25;;;;;;;4.53;3.63;;;9.30;1.00;;;;;;5033477;28;20432;-71
2023/03/17 01:51:57;;;;;;;6.80;4.10;;;9.30;1.00;;;;;;5032146;28;20475;-71
2023/03/17 01:54:41;;;;;;;6.40;4.03;;;9.30;1.00;;;;;;5044763;28;20432;-71
2023/03/17 01:57:31;;;;;;;6.97;3.83;;;9.20;1.00;;;;;;5030642;28;20517;-71
2023/03/17 02:00:08;;;;;;;6.43;4.40;;;9.20;1.00;;;;;;5030962;28;20436;-71
2023/03/17 02:02:37;;;;;;;6.97;4.33;;;9.20;1.00;;;;;;5030212;28;20947;-71
2023/03/17 02:05:05;;;;;;;4.90;3.97;;;9.20;1.00;;;;;;5044881;28;21030;-70
2023/03/17 02:07:31;;;;;;;6.87;4.30;;;9.20;1.00;;;;;;5036192;28;20452;-70
2023/03/17 02:09:58;;;;;;;6.90;4.50;;;9.20;1.00;;;;;;5031513;28;20454;-71
2023/03/17 02:12:26;;;;;;;7.40;5.00;;;9.10;1.00;;;;;;5046067;28;20518;-71
2023/03/17 02:14:52;;;;;;;12.27;4.10;;;9.10;1.00;;;;;;5049106;28;20774;-71
2023/03/17 02:17:20;;;;;;;6.40;4.03;;;9.40;1.00;;;;;;5031919;28;20490;-71
2023/03/17 02:19:45;;;;;;;4.50;3.60;;;9.10;1.00;;;;;;5030056;28;20221;-70
2023/03/17 02:22:11;;;;;;;4.17;3.77;;;9.50;1.00;;;;;;5043700;28;20444;-71
2023/03/17 02:24:42;;;;;;;5.00;4.20;;;9.10;1.00;;;;;;5036417;28;20248;-70
2023/03/17 02:27:16;;;;;;;6.10;3.97;;;9.10;1.00;;;;;;5050725;28;20205;-71
2023/03/17 02:29:45;;;;;;;7.23;3.97;;;9.10;1.00;;;;;;5054989;28;20437;-71
2023/03/17 02:32:11;;;;;;;4.70;3.80;;;9.10;1.00;;;;;;5035171;28;20420;-71
2023/03/17 02:34:37;;;;;;;5.10;4.00;;;9.10;1.00;;;;;;5046415;28;20791;-68
2023/03/17 02:37:03;;;;;;;5.63;3.77;;;9.00;1.00;;;;;;5053130;28;20455;-71
2023/03/17 02:39:29;;;;;;;6.70;4.10;;;9.00;1.00;;;;;;5041331;28;20197;-72
2023/03/17 02:41:55;;;;;;;5.47;3.77;;;9.00;1.00;;;;;;5051087;28;20434;-71
2023/03/17 02:44:20;;;;;;;4.53;4.07;;;8.90;1.00;;;;;;5038400;28;20276;-70
2023/03/17 02:46:46;;;;;;;7.77;4.00;;;8.90;1.00;;;;;;5031355;28;20206;-71
2023/03/17 02:49:13;;;;;;;5.90;3.97;;;8.90;1.00;;;;;;5029312;28;20204;-71
2023/03/17 02:51:39;;;;;;;4.20;3.10;;;8.80;1.00;;;;;;5035098;28;20177;-70
2023/03/17 02:54:04;;;;;;;5.33;3.70;;;8.80;1.00;;;;;;5046568;28;20444;-70
2023/03/17 02:56:30;;;;;;;4.93;4.00;;;8.70;1.00;;;;;;5047981;28;20208;-71
2023/03/17 02:58:55;;;;;;;4.10;3.70;;;8.70;1.00;;;;;;5062957;28;20177;-70
2023/03/17 03:01:21;;;;;;;5.47;4.03;;;8.70;1.00;;;;;;5030517;28;20178;-71
2023/03/17 03:03:47;;;;;;;4.93;3.93;;;8.70;1.00;;;;;;5035906;28;20256;-71
2023/03/17 03:06:12;;;;;;;5.00;3.90;;;8.60;1.00;;;;;;5033635;28;20209;-71
2023/03/17 03:08:38;;;;;;;4.70;3.80;;;8.60;1.00;;;;;;5035841;28;20265;-71
2023/03/17 03:11:03;;;;;;;3.80;3.37;;;8.60;1.00;;;;;;5036350;28;20272;-71
2023/03/17 03:13:30;;;;;;;7.10;3.70;;;8.50;1.00;;;;;;5046332;28;20189;-71
2023/03/17 03:15:55;;;;;;;3.60;3.27;;;8.50;1.00;;;;;;5036759;28;20704;-71
2023/03/17 03:18:21;;;;;;;5.10;4.07;;;8.50;1.00;;;;;;5049470;28;20432;-70
2023/03/17 03:20:46;;;;;;;7.90;3.80;;;8.50;1.00;;;;;;5037578;28;20213;-71
2023/03/17 03:23:13;;;;;;;4.17;3.60;;;8.40;1.00;;;;;;5061950;28;20204;-71
2023/03/17 03:25:38;;;;;;;6.10;3.63;;;8.40;1.00;;;;;;5033209;28;20227;-71
2023/03/17 03:28:06;;;;;;;5.30;3.70;;;8.40;1.00;;;;;;5032547;28;20542;-70
2023/03/17 03:30:33;;;;;;;5.10;4.03;;;8.40;1.00;;;;;;5041263;28;20185;-71
2023/03/17 03:32:58;;;;;;;5.97;3.77;;;8.40;1.00;;;;;;5047740;28;20432;-71
2023/03/17 03:35:24;;;;;;;5.00;3.67;;;8.40;1.00;;;;;;5036124;28;20912;-71
2023/03/17 03:37:49;;;;;;;4.90;3.90;;;8.30;1.00;;;;;;5054539;28;20204;-71
2023/03/17 03:40:15;;;;;;;5.20;4.20;;;8.30;1.00;;;;;;5035051;28;20190;-71
2023/03/17 03:42:41;;;;;;;6.20;4.00;;;8.30;1.00;;;;;;5037641;28;20428;-71
2023/03/17 03:45:07;;;;;;;4.90;3.67;;;8.20;1.00;;;;;;5039978;28;20503;-71
2023/03/17 03:47:33;;;;;;;4.20;3.50;;;8.20;1.00;;;;;;5035183;28;20197;-70
2023/03/17 03:49:59;;;;;;;6.10;3.60;;;8.20;1.00;;;;;;5029943;28;20438;-71
2023/03/17 03:52:25;;;;;;;5.70;4.00;;;8.10;1.00;;;;;;5037399;28;20190;-71
2023/03/17 03:54:50;;;;;;;5.60;3.80;;;8.10;1.00;;;;;;5039127;28;20268;-70
2023/03/17 03:57:16;;;;;;;5.40;3.97;;;8.10;1.00;;;;;;5029980;28;20210;-71
2023/03/17 03:59:41;;;;;;;5.67;4.03;;;8.10;1.00;;;;;;5030341;28;20185;-71
2023/03/17 04:02:07;;;;;;;6.60;3.70;;;8.10;1.00;;;;;;5031671;28;20185;-70
2023/03/17 04:04:32;;;;;;;3.90;3.40;;;8.00;1.00;;;;;;5045393;28;20572;-70
2023/03/17 04:06:58;;;;;;;4.97;3.87;;;8.00;1.00;;;;;;5032232;28;20246;-71
2023/03/17 04:09:23;;;;;;;5.80;3.80;;;8.00;1.00;;;;;;5047013;28;20234;-70
2023/03/17 04:11:49;;;;;;;6.20;3.77;;;8.00;1.00;;;;;;5035736;28;20713;-70
2023/03/17 04:14:14;;;;;;;4.30;3.83;;;8.00;1.00;;;;;;5036516;28;20181;-71
2023/03/17 04:16:40;;;;;;;5.50;3.93;;;7.90;1.00;;;;;;5034625;28;20209;-70
2023/03/17 04:19:06;;;;;;;4.40;4.00;;;7.90;1.00;;;;;;5031486;28;20663;-70
2023/03/17 04:21:31;;;;;;;5.83;4.00;;;7.80;1.00;;;;;;5032168;28;20205;-71
2023/03/17 04:23:57;;;;;;;7.23;4.70;;;7.80;1.00;;;;;;5032757;28;20181;-70
2023/03/17 04:26:23;;;;;;;5.73;4.40;;;7.80;1.00;;;;;;5036710;28;20212;-70
2023/03/17 04:28:48;;;;;;;7.53;4.93;;;7.70;1.00;;;;;;5035275;28;20424;-71
2023/03/17 04:31:14;;;;;;;7.40;4.40;;;7.70;1.00;;;;;;5038665;28;20189;-71
2023/03/17 04:33:40;;;;;;;6.30;3.50;;;7.80;1.00;;;;;;5041136;28;20189;-71
2023/03/17 04:36:06;;;;;;;5.80;3.93;;;7.80;1.00;;;;;;5037216;28;20193;-71
2023/03/17 04:38:32;;;;;;;6.27;3.80;;;7.80;1.00;;;;;;5038116;28;20252;-71
2023/03/17 04:40:58;;;;;;;5.67;3.80;;;7.80;1.00;;;;;;5035574;28;20448;-70
2023/03/17 04:43:24;;;;;;;6.97;3.30;;;7.80;1.00;;;;;;5055037;28;20444;-71
2023/03/17 04:45:50;;;;;;;6.03;3.83;;;7.90;1.00;;;;;;5033535;28;20809;-70
2023/03/17 04:48:16;;;;;;;4.80;3.57;;;7.80;1.00;;;;;;5047924;28;20806;-70
2023/03/17 04:50:41;;;;;;;4.27;3.60;;;7.80;1.00;;;;;;5032710;28;20432;-70
2023/03/17 04:53:08;;;;;;;3.93;3.30;;;7.70;1.00;;;;;;5052514;28;20192;-70
2023/03/17 04:55:33;;;;;;;5.03;3.60;;;7.70;1.00;;;;;;5031762;28;20656;-70
2023/03/17 04:57:59;;;;;;;4.83;3.70;;;7.70;1.00;;;;;;5031437;28;20622;-70
2023/03/17 05:00:25;;;;;;;3.73;3.23;;;7.70;1.00;;;;;;5031276;28;20223;-71
2023/03/17 05:02:50;;;;;;;5.60;3.67;;;7.70;1.00;;;;;;5045713;28;20570;-71
2023/03/17 05:05:16;;;;;;;6.43;3.60;;;7.60;1.00;;;;;;5049335;28;20212;-69
2023/03/17 05:07:43;;;;;;;5.30;4.20;;;7.60;1.00;;;;;;5034809;28;20256;-70
2023/03/17 05:10:10;;;;;;;10.07;3.57;;;7.60;1.00;;;;;;5039177;28;20216;-70
2023/03/17 05:12:35;;;;;;;4.67;3.67;;;7.60;1.00;;;;;;5039077;28;20456;-71
2023/03/17 05:15:01;;;;;;;4.90;3.73;;;7.60;1.00;;;;;;5029900;28;20436;-69
2023/03/17 05:17:27;;;;;;;5.80;3.87;;;7.60;1.00;;;;;;5038284;28;20214;-70
2023/03/17 05:19:52;;;;;;;4.67;3.37;;;7.60;1.00;;;;;;5033617;28;20733;-70
2023/03/17 05:22:18;;;;;;;5.60;3.97;;;7.60;1.00;;;;;;5035001;28;20632;-70
2023/03/17 05:24:43;;;;;;;4.17;3.47;;;7.60;1.00;;;;;;5031130;28;20220;-72
2023/03/17 05:27:09;;;;;;;6.10;3.90;;;7.60;1.00;;;;;;5032706;28;20200;-71
2023/03/17 05:29:34;;;;;;;6.67;4.10;;;7.60;1.00;;;;;;5042895;28;20201;-70
2023/03/17 05:32:00;;;;;;;4.10;3.10;;;7.60;1.00;;;;;;5040465;28;20548;-71
2023/03/17 05:34:25;;;;;;;7.40;3.77;;;7.60;1.00;;;;;;5030650;28;20185;-70
2023/03/17 05:36:51;;;;;;;4.37;3.63;;;7.60;1.00;;;;;;5031556;28;20209;-72
2023/03/17 05:39:16;;;;;;;5.37;3.60;;;7.60;1.00;;;;;;5033839;28;20186;-71
2023/03/17 05:41:42;;;;;;;6.37;3.63;;;7.60;1.00;;;;;;5041837;28;20197;-70
2023/03/17 05:44:08;;;;;;;5.40;3.70;;;7.60;1.00;;;;;;5039023;28;20966;-70
2023/03/17 05:46:33;;;;;;;6.30;3.90;;;7.60;1.00;;;;;;5030498;28;20209;-71
2023/03/17 05:48:59;;;;;;;6.30;4.37;;;7.60;1.00;;;;;;5031302;28;20509;-70
2023/03/17 05:51:24;;;;;;;5.50;4.13;;;7.60;1.00;;;;;;5044116;28;20190;-71
2023/03/17 05:53:50;;;;;;;5.80;3.90;;;7.60;1.00;;;;;;5036163;28;20228;-71
2023/03/17 05:56:16;;;;;;;6.03;4.40;;;7.60;1.00;;;;;;5032100;28;20200;-70
2023/03/17 05:58:41;;;;;;;6.27;4.20;;;7.60;1.00;;;;;;5029366;28;20188;-70
2023/03/17 06:01:07;;;;;;;7.33;4.13;;;7.70;1.00;;;;;;5042050;28;20182;-71
2023/03/17 06:03:32;;;;;;;5.53;4.10;;;7.70;1.00;;;;;;5035513;28;20190;-71
2023/03/17 06:05:58;;;;;;;5.90;3.90;;;7.90;1.00;;;;;;5031626;28;20245;-71
2023/03/17 06:08:23;;;;;;;4.40;3.67;;;7.80;1.00;;;;;;5032232;28;20620;-71
2023/03/17 06:10:49;;;;;;;5.43;3.20;;;7.80;1.00;;;;;;5045988;28;20238;-70
2023/03/17 06:13:14;;;;;;;7.37;3.97;;;7.90;1.00;;;;;;5030880;28;20204;-70
2023/03/17 06:15:41;;;;;;;5.80;4.40;;;8.00;1.00;;;;;;5030213;28;20197;-72
2023/03/17 06:18:07;;;;;;;5.47;4.27;;;7.90;1.00;;;;;;5030211;28;20213;-70
2023/03/17 06:20:33;;;;;;;5.17;3.97;;;8.00;1.00;;;;;;5029087;28;20424;-72
2023/03/17 06:22:59;;;;;;;6.33;3.97;;;8.00;1.00;;;;;;5046920;28;20264;-71
2023/03/17 06:25:25;;;;;;;6.27;4.27;;;8.00;1.00;;;;;;5034686;28;20634;-71
2023/03/17 06:27:53;;;;;;;5.33;3.80;;;8.00;1.00;;;;;;5033991;28;20499;-70
2023/03/17 06:30:19;;;;;;;5.87;3.87;;;8.10;1.00;;;;;;5031665;28;20182;-70
2023/03/17 06:32:45;;;;;;;6.70;4.00;;;8.10;1.00;;;;;;5039824;28;20846;-70
2023/03/17 06:35:12;;;;;;;5.37;3.73;;;8.10;1.00;;;;;;5031999;28;20437;-70
2023/03/17 06:37:37;;;;;;;5.27;4.23;;;8.20;1.00;;;;;;5029937;28;20213;-72
2023/03/17 06:40:04;;;;;;;6.73;4.07;;;8.20;1.00;;;;;;5029677;28;20515;-70
2023/03/17 06:42:30;;;;;;;4.50;3.77;;;8.40;1.00;;;;;;5051954;28;20235;-70
2023/03/17 06:44:56;;;;;;;5.50;4.27;;;8.50;1.00;;;;;;5052163;28;20578;-70
2023/03/17 06:47:21;;;;;;;7.03;4.27;;;8.10;1.00;;;;;;5036719;28;22167;-70
2023/03/17 06:49:47;;;;;;;7.20;4.27;;;9.00;1.00;;;;;;5040808;28;20206;-70
2023/03/17 06:52:12;;;;;;;5.00;3.77;;;9.30;1.00;;;;;;5041377;28;20536;-71
2023/03/17 06:54:38;;;;;;;5.63;4.20;;;9.70;1.00;;;;;;5040334;28;20190;-71
2023/03/17 06:57:04;;;;;;;8.20;4.43;;;10.00;1.00;;;;;;5031957;28;20708;-72
2023/03/17 06:59:29;;;;;;;5.03;3.60;;;10.10;1.00;;;;;;5038808;28;20287;-70
2023/03/17 07:01:55;;;;;;;5.43;3.90;;;10.20;1.00;;;;;;5053463;28;20231;-70
2023/03/17 07:04:21;;;;;;;6.47;4.57;;;10.40;1.00;;;;;;5040247;28;20308;-70
2023/03/17 07:06:46;;;;;;;6.37;4.97;;;10.50;1.00;;;;;;5042248;28;20224;-71
2023/03/17 07:09:12;;;;;;;7.77;4.43;;;10.60;1.00;;;;;;5044207;28;20691;-70
2023/03/17 07:11:37;;;;;;;6.90;4.23;;;10.80;1.00;;;;;;5051026;28;20635;-71
2023/03/17 07:14:04;;;;;;;6.77;4.80;;;11.60;1.00;;;;;;5050579;28;20181;-70
2023/03/17 07:16:31;;;;;;;6.43;4.70;;;11.50;1.00;;;;;;5036629;28;20197;-71
2023/03/17 07:18:58;;;;;;;4.83;4.00;;;11.70;1.00;;;;;;5051382;28;20538;-72
2023/03/17 07:21:24;;;;;;;6.93;4.60;;;11.70;1.00;;;;;;5052550;28;20441;-71
2023/03/17 07:23:49;;;;;;;4.77;4.03;;;11.70;1.00;;;;;;5056397;28;20473;-71
2023/03/17 07:26:15;;;;;;;9.50;3.90;;;11.60;1.00;;;;;;5044343;28;20267;-71
2023/03/17 07:28:41;;;;;;;6.10;4.60;;;11.70;1.00;;;;;;5042747;28;20460;-71
2023/03/17 07:31:12;;;;;;;4.13;3.73;;;11.90;1.00;;;;;;5044551;28;20264;-72
2023/03/17 07:33:39;;;;;;;5.00;3.67;;;11.80;1.00;;;;;;5045880;28;20196;-70
2023/03/17 07:36:06;;;;;;;5.47;4.00;;;11.80;1.00;;;;;;5032884;28;20428;-71
2023/03/17 07:38:32;;;;;;;9.57;3.93;;;11.70;1.00;;;;;;5053899;28;20466;-71
2023/03/17 07:40:58;;;;;;;5.60;4.40;;;11.50;1.00;;;;;;5046415;28;20448;-70
2023/03/17 07:43:24;;;;;;;6.17;4.30;;;11.20;1.00;;;;;;5034889;28;20433;-70
2023/03/17 07:45:50;;;;;;;6.70;5.00;;;11.10;1.00;;;;;;5038365;28;22029;-71
2023/03/17 07:48:16;;;;;;;10.53;4.87;;;;;;;;;;5044627;28;20201;-71
2023/03/17 07:50:42;;;;;;;5.67;4.43;;;10.90;1.00;;;;;;5046155;28;20181;-72
2023/03/17 07:53:07;;;;;;;8.30;4.43;;;10.80;1.00;;;;;;5037605;28;20469;-70
2023/03/17 07:55:34;;;;;;;5.57;4.10;;;10.80;1.00;;;;;;5040289;28;20732;-71
2023/03/17 07:58:00;;;;;;;7.03;4.00;;;10.90;1.00;;;;;;5036877;28;20196;-71
2023/03/17 08:00:26;;;;;;;4.50;3.63;;;11.00;1.00;;;;;;5046686;28;20440;-71
2023/03/17 08:02:52;;;;;;;6.43;4.30;;;11.10;1.00;;;;;;5049894;28;20205;-70
2023/03/17 08:05:18;;;;;;;5.90;4.10;;;11.20;1.00;;;;;;5034940;28;21203;-71
2023/03/17 08:07:44;;;;;;;5.10;4.17;;;11.30;1.00;;;;;;5058741;28;20696;-71
2023/03/17 08:10:12;;;;;;;6.83;4.40;;;11.40;1.00;;;;;;5043002;28;20255;-71
2023/03/17 08:12:38;;;;;;;4.53;3.83;;;11.40;1.00;;;;;;5037341;28;20756;-70
2023/03/17 08:15:05;;;;;;;4.50;3.37;;;11.50;1.00;;;;;;5034663;28;20437;-67
2023/03/17 08:17:30;;;;;;;4.93;3.97;;;11.50;1.00;;;;;;5052925;28;20498;-71
2023/03/17 08:19:56;;;;;;;8.77;4.40;;;11.60;1.00;;;;;;5034604;28;20432;-72
2023/03/17 08:22:22;;;;;;;5.90;3.70;;;12.10;1.00;;;;;;5047703;28;20185;-70
2023/03/17 08:24:48;;;;;;;4.57;3.77;;;11.90;1.00;;;;;;5049730;28;20660;-71
2023/03/17 08:27:15;;;;;;;6.37;4.03;;;12.10;1.00;;;;;;5052020;28;20664;-71
2023/03/17 08:29:40;;;;;;;5.33;4.03;;;12.30;1.00;;;;;;5050488;28;20523;-72
2023/03/17 08:32:06;;;;;;;5.90;3.80;;;12.50;1.00;;;;;;5039421;28;20806;-70
2023/03/17 08:34:32;;;;;;;5.00;3.83;;;12.80;1.00;;;;;;5046250;28;20181;-70
2023/03/17 08:36:59;;;;;;;5.57;3.47;;;13.00;1.00;;;;;;5046684;28;20463;-71
2023/03/17 08:39:25;;;;;;;6.27;4.27;;;13.20;1.00;;;;;;5041331;28;20224;-71
2023/03/17 08:41:51;;;;;;;4.97;3.93;;;13.30;1.00;;;;;;5037280;28;20472;-71
2023/03/17 08:44:16;;;;;;;7.67;4.10;;;13.30;1.00;;;;;;5042947;28;20217;-70
2023/03/17 08:46:42;;;;;;;6.27;4.63;;;13.70;1.00;;;;;;5035001;28;20209;-71
2023/03/17 08:49:08;;;;;;;6.77;4.40;;;14.70;1.00;;;;;;5049413;28;20188;-72
2023/03/17 08:51:36;;;;;;;6.77;4.90;;;16.50;1.00;;;;;;5040309;28;20184;-71
2023/03/17 08:54:02;;;;;;;6.50;5.60;;;17.90;1.00;;;;;;5057280;28;20447;-72
2023/03/17 08:56:28;;;;;;;7.20;5.30;;;19.30;1.00;;;;;;5043337;28;20544;-71
2023/03/17 08:58:54;;;;;;;6.80;5.33;;;20.40;1.00;;;;;;5041616;28;20526;-72
2023/03/17 09:01:21;;;;;;;7.60;5.70;;;21.20;1.00;;;;;;5048045;28;20191;-71
2023/03/17 09:03:48;;;;;;;11.77;6.00;;;21.90;1.00;;;;;;5045066;28;20500;-72
2023/03/17 09:06:14;;;;;;;8.57;5.60;;;23.10;1.00;;;;;;5040498;28;20890;-69
2023/03/17 09:08:43;;;;;;;6.47;5.10;;;23.80;1.00;;;;;;5037622;28;20972;-71
2023/03/17 09:11:19;;;;;;;8.13;5.83;;;24.20;1.00;;;;;;5044242;28;20439;-71
2023/03/17 09:13:46;;;;;;;6.70;5.20;;;24.30;1.00;;;;;;5033363;28;20470;-71
2023/03/17 09:16:13;;;;;;;7.10;4.90;;;23.50;1.00;;;;;;5049076;28;20454;-72
2023/03/17 09:18:39;;;;;;;7.07;5.73;;;22.00;1.00;;;;;;5044502;28;20485;-71
2023/03/17 09:21:05;;;;;;;7.17;5.30;;;20.30;1.00;;;;;;5040117;28;20446;-69
2023/03/17 09:23:32;;;;;;;9.57;5.47;;;19.20;1.00;;;;;;5037696;28;20431;-71
2023/03/17 09:25:58;;;;;;;8.23;5.50;;;18.70;1.00;;;;;;5042390;28;20459;-72
2023/03/17 09:28:23;;;;;;;7.20;5.23;;;19.70;1.00;;;;;;5039364;28;21273;-71
2023/03/17 09:30:49;;;;;;;8.20;5.10;;;21.20;1.00;;;;;;5040774;28;20578;-73
2023/03/17 09:33:16;;;;;;;7.60;5.50;;;22.50;1.00;;;;;;5048541;28;20180;-72
2023/03/17 09:35:42;;;;;;;6.47;5.10;;;23.50;1.00;;;;;;5049328;28;20670;-71
2023/03/17 09:38:08;;;;;;;6.60;5.10;;;23.80;1.00;;;;;;5036885;28;20494;-70
2023/03/17 09:41:00;;;;;;;6.20;5.20;;;24.00;1.00;;;;;;5038283;28;20181;-72
2023/03/17 09:43:48;;;;;;;6.27;4.93;;;24.00;1.00;;;;;;5028602;28;20519;-72
2023/03/17 09:46:26;;;;;;;7.40;5.30;;;23.10;1.00;;;;;;5047774;28;20467;-72
2023/03/17 09:49:13;;;;;;;6.60;5.00;;;22.20;1.00;;;;;;5042628;28;20411;-72
2023/03/17 09:51:39;;;;;;;8.50;5.50;;;22.30;1.00;;;;;;5042557;28;20448;-71
2023/03/17 09:54:11;;;;;;;8.10;5.30;;;22.20;1.00;;;;;;5050439;28;20418;-68
2023/03/17 09:56:42;;;;;;;7.87;5.80;;;22.20;1.00;;;;;;5046459;28;20204;-72
2023/03/17 09:59:34;;;;;;;6.57;5.60;;;22.50;1.00;;;;;;5043839;28;20783;-71
2023/03/17 10:02:00;;;;;;;7.67;5.70;;;22.20;1.00;;;;;;5054986;28;20438;-72
2023/03/17 10:04:26;;;;;;;7.73;5.90;;;21.80;1.00;;;;;;5035440;28;20467;-68
2023/03/17 10:06:59;;;;;;;8.50;5.97;;;21.50;1.00;;;;;;5041678;28;20200;-70
2023/03/17 10:09:28;;;;;;;6.83;4.80;;;21.80;1.00;;;;;;5041713;28;20527;-71
2023/03/17 10:12:26;;;;;;;8.00;5.70;;;22.50;1.00;;;;;;5042649;28;20522;-71
2023/03/17 10:15:03;;;;;;;11.13;5.77;;;22.80;1.00;;;;;;5042329;28;20928;-70
2023/03/17 10:17:38;;;;;;;6.77;5.30;;;22.90;1.00;;;;;;5041716;28;20492;-71
2023/03/17 10:20:31;;;;;;;7.53;5.27;;;23.30;1.00;;;;;;5044768;28;20435;-71
2023/03/17 10:23:02;;;;;;;8.87;5.40;;;23.70;1.00;;;;;;5036048;28;20811;-70
2023/03/17 10:25:30;;;;;;;7.43;5.00;;;24.60;1.00;;;;;;5032331;28;20616;-70
2023/03/17 10:28:04;;;;;;;6.53;5.10;;;26.50;1.00;;;;;;5052506;28;20864;-72
2023/03/17 10:30:34;;;;;;;7.30;5.00;;;27.60;1.00;;;;;;5044518;28;20423;-71
2023/03/17 10:33:02;;;;;;;6.33;5.70;;;28.10;1.00;;;;;;5046336;28;20181;-71
2023/03/17 10:35:29;;;;;;;7.57;5.10;;;28.30;1.00;;;;;;5037988;28;20178;-70
2023/03/17 10:37:54;;;;;;;7.07;4.80;;;28.00;1.00;;;;;;5047224;28;20641;-71
2023/03/17 10:40:25;;;;;;;6.30;4.53;;;28.50;1.00;;;;;;5063516;28;20184;-71
2023/03/17 10:43:02;;;;;;;7.07;4.80;;;28.10;1.00;;;;;;5056286;28;20187;-72
2023/03/17 10:45:31;;;;;;;11.43;5.60;;;27.40;1.00;;;;;;5041998;28;20221;-71
2023/03/17 10:47:59;;;;;;;7.30;5.00;;;27.40;1.00;;;;;;5047843;28;20211;-71
2023/03/17 10:50:28;;;;;;;6.70;5.40;;;27.00;1.00;;;;;;5047512;28;20231;-71
2023/03/17 10:53:02;;;;;;;7.03;5.00;;;26.80;1.00;;;;;;5051630;28;20177;-70
2023/03/17 10:55:32;;;;;;;6.20;4.80;;;26.90;1.00;;;;;;5046995;28;20176;-71
2023/03/17 10:58:12;;;;;;;6.47;5.10;;;26.90;1.00;;;;;;5045699;28;20794;-70
2023/03/17 11:00:45;;;;;;;6.83;5.13;;;26.30;1.00;;;;;;5039750;28;20181;-71
2023/03/17 11:03:26;;;;;;;8.17;5.47;;;26.60;1.00;;;;;;5046699;28;20864;-71
2023/03/17 11:06:08;;;;;;;6.63;5.10;;;27.00;1.00;;;;;;5051648;28;20203;-71
2023/03/17 11:08:44;;;;;;;7.63;5.17;;;27.80;1.00;;;;;;5042065;28;20177;-70
2023/03/17 11:11:23;;;;;;;8.40;5.43;;;28.40;1.00;;;;;;5041949;28;20244;-71
2023/03/17 11:13:48;;;;;;;6.80;5.20;;;28.80;1.00;;;;;;5054933;28;20272;-71
2023/03/17 11:16:23;;;;;;;7.37;5.70;;;28.20;1.00;;;;;;5045867;28;20570;-71
2023/03/17 11:18:56;;;;;;;6.67;4.77;;;28.00;1.00;;;;;;5038748;28;20192;-69
2023/03/17 11:21:34;;;;;;;6.80;4.97;;;27.30;1.00;;;;;;5050417;28;20362;-71
2023/03/17 11:24:17;;;;;;;7.77;5.07;;;26.90;1.00;;;;;;5046287;28;20246;-71
2023/03/17 11:26:53;;;;;;;6.33;4.97;;;26.40;1.00;;;;;;5035090;28;20683;-72
2023/03/17 11:29:27;;;;;;;9.07;4.87;;;25.50;1.00;;;;;;5038536;28;20266;-70
2023/03/17 11:32:32;;;;;;;9.40;5.60;;;24.60;1.00;;;;;;5038095;28;20964;-71
2023/03/17 11:35:22;;;;;;;6.83;5.03;;;23.70;1.00;;;;;;5035643;28;20902;-70
2023/03/17 11:37:58;;;;;;;8.93;5.40;;;23.10;1.00;;;;;;5041403;28;20463;-72
2023/03/17 11:40:44;;;;;;;8.07;5.13;;;22.90;1.00;;;;;;5032288;28;20787;-71
2023/03/17 11:43:13;;;;;;;7.80;4.77;;;23.70;1.00;;;;;;5046735;28;20435;-67
2023/03/17 11:45:48;;;;;;;7.60;5.10;;;24.00;1.00;;;;;;5036735;28;20566;-71
2023/03/17 11:48:42;;;;;;;6.67;5.07;;;23.80;1.00;;;;;;5031311;28;20539;-72
2023/03/17 11:51:27;;;;;;;9.67;5.13;;;24.00;1.00;;;;;;5039777;28;20461;-71
2023/03/17 11:53:57;;;;;;;7.17;5.40;;;26.50;1.00;;;;;;5044979;28;20984;-72
2023/03/17 11:56:40;;;;;;;7.27;5.60;;;28.00;1.00;;;;;;5030382;28;20989;-71
2023/03/17 11:59:18;;;;;;;7.27;5.03;;;28.60;1.00;;;;;;5035204;28;20419;-73
2023/03/17 12:02:10;;;;;;;5.90;4.50;;;27.90;1.00;;;;;;5044999;28;20262;-72
2023/03/17 12:04:42;;;;;;;6.97;5.30;;;26.60;1.00;;;;;;5046016;28;20463;-70
2023/03/17 12:07:20;;;;;;;6.07;4.83;;;24.90;1.00;;;;;;5065718;28;20470;-70
2023/03/17 12:10:06;;;;;;;8.93;5.40;;;23.80;1.00;;;;;;5042384;28;20438;-69
2023/03/17 12:12:39;;;;;;;6.27;5.03;;;22.50;1.00;;;;;;5047123;28;20457;-70
2023/03/17 12:15:17;;;;;;;6.80;5.10;;;21.80;1.00;;;;;;5043264;28;20542;-68
2023/03/17 12:18:33;;;;;;;7.13;4.60;;;21.40;1.00;;;;;;5050413;28;20521;-70
2023/03/17 12:21:31;;;;;;;7.70;4.40;;;21.10;1.00;;;;;;4965842;28;20521;-69
2023/03/17 12:24:16;;;;;;;8.50;4.83;;;21.00;1.00;;;;;;4969460;28;20476;-68
2023/03/17 12:26:54;;;;;;;6.53;4.53;;;20.70;1.00;;;;;;5033459;28;20467;-68
2023/03/17 12:29:50;;;;;;;6.87;4.63;;;20.40;1.00;;;;;;5042859;28;20769;-68
2023/03/17 12:32:40;;;;;;;8.53;4.50;;;20.60;1.00;;;;;;5039179;28;21057;-68
2023/03/17 12:35:35;;;;;;;7.53;4.83;;;20.70;1.00;;;;;;5045765;28;20492;-71
2023/03/17 12:38:13;;;;;;;6.70;4.53;;;20.80;1.00;;;;;;5034808;28;20456;-70
2023/03/17 12:40:41;;;;;;;8.50;4.87;;;20.80;1.00;;;;;;5040621;28;20436;-71
2023/03/17 12:43:56;;;;;;;6.90;5.00;;;20.90;1.00;;;;;;5039584;28;20440;-69
2023/03/17 12:46:40;;;;;;;9.40;4.97;;;20.80;1.00;;;;;;5014642;28;21081;-67
2023/03/17 12:49:09;;;;;;;8.40;4.80;;;20.70;1.00;;;;;;5044369;28;20472;-68
2023/03/17 12:51:38;;;;;;;8.50;4.83;;;21.10;1.00;;;;;;5044069;28;20958;-69
2023/03/17 12:54:11;;;;;;;9.27;4.43;;;21.10;1.00;;;;;;5038638;28;20457;-70
2023/03/17 12:56:43;;;;;;;8.40;4.43;;;21.10;1.00;;;;;;5056230;28;20447;-68
2023/03/17 12:59:16;;;;;;;9.67;5.10;;;22.00;1.00;;;;;;5048952;28;20443;-68
2023/03/17 13:01:45;;;;;;;5.63;4.10;;;21.00;1.00;;;;;;5064515;28;20506;-69
2023/03/17 13:04:31;;;;;;;5.87;4.40;;;21.00;1.00;;;;;;5047231;28;20534;-69
2023/03/17 13:07:13;;;;;;;7.00;4.60;;;21.30;1.00;;;;;;5060373;28;20933;-71
2023/03/17 13:10:08;;;;;;;6.60;4.30;;;21.30;1.00;;;;;;5038049;28;20442;-71
2023/03/17 13:12:43;;;;;;;7.97;5.00;;;21.30;1.00;;;;;;5047344;28;20445;-71
2023/03/17 13:15:23;;;;;;;7.83;4.50;;;20.80;1.00;;;;;;5056578;28;20738;-71